Flight Track Log - Related Links

Times and Time Zones

All times are in EDT time to prevent confusion due to time zone crossing. See the AWE479 flight status page for this flight to view local times or setup timezone preferences in your user account.

Time Position Orientation Groundspeed Altitude Reporting Facility
EDT Latitude Longitude Course Direction KTS MPH feet Rate Location/Type
Fri 07:57:12 AM 35.2540 -80.9660 322° Northwest 186 214 2,500  Level FlightAware ADS-B
Fri 07:57:42 AM 35.2760 -80.9890 320° Northwest 222 255 3,100 1,200 Climbing FlightAware ADS-B
Fri 07:58:07 AM 35.2920 -81.0160 306° West 261 300 3,600 1,200 Climbing FlightAware ADS-B
Fri 07:58:17 AM 35.2940 -81.0300 280° West 275 316 3,800 2,133 Climbing FlightAware ADS-B
Fri 07:58:52 AM 35.2890 -81.0820 263° West 287 330 5,200 2,700 Climbing FlightAware ADS-B
Fri 07:58:57 AM 35.2870 -81.0950 259° West 288 331 5,600 2,850 Climbing FlightAware ADS-B
Fri 07:59:32 AM 35.2800 -81.1520 261° West 298 343 7,100 2,100 Climbing FlightAware ADS-B
Fri 07:59:57 AM 35.2760 -81.1900 263° West 293 337 7,700 655 Climbing FlightAware ADS-B
Fri 08:00:27 AM 35.2720 -81.2320 263° West 293 337 7,700 1,348 Level FlightAware ADS-B
Fri 08:01:26 AM 35.2272 -81.3308 263° West 300 345 9,700 1,934 Climbing Atlanta Center
Fri 08:02:28 AM 35.1856 -81.4214 241° Southwest 316 364 11,600 1,661 Climbing Atlanta Center
Fri 08:08:54 AM 35.0942 -82.2795 241° Southwest 438 504 22,100 1,646 Climbing FlightAware ADS-B
Fri 08:08:58 AM 35.0959 -82.2892 282° West 437 503 22,300 1,235 Climbing FlightAware ADS-B
Fri 08:09:28 AM 35.1136 -82.3609 287° West 445 512 22,800 700 Climbing FlightAware ADS-B
Fri 08:09:58 AM 35.1323 -82.4340 287° West 460 529 23,000 200 Climbing FlightAware ADS-B
Fri 08:10:28 AM 35.1517 -82.5100 287° West 476 548 23,000  Level FlightAware ADS-B
Fri 08:10:59 AM 35.1721 -82.5894 287° West 494 568 23,000 885 Level FlightAware ADS-B
Fri 08:11:29 AM 35.1928 -82.6704 287° West 488 562 23,900 1,865 Climbing FlightAware ADS-B
Fri 08:12:13 AM 35.2213 -82.7823 287° West 470 541 25,300 1,342 Climbing FlightAware ADS-B
Fri 08:12:45 AM 35.2419 -82.8642 287° West 479 551 25,600 857 Climbing FlightAware ADS-B
Fri 08:13:16 AM 35.2623 -82.9450 287° West 479 551 26,200 1,065 Climbing FlightAware ADS-B
Fri 08:13:47 AM 35.2824 -83.0245 287° West 482 555 26,700 1,279 Climbing FlightAware ADS-B
Fri 08:14:17 AM 35.3020 -83.1024 287° West 476 548 27,500 1,300 Climbing FlightAware ADS-B
Fri 08:14:47 AM 35.3215 -83.1805 287° West 475 547 28,000 1,000 Climbing FlightAware ADS-B
Fri 08:15:17 AM 35.3408 -83.2580 287° West 477 549 28,500 1,082 Climbing FlightAware ADS-B
Fri 08:15:48 AM 35.3602 -83.3360 287° West 475 547 29,100 1,143 Climbing FlightAware ADS-B
Fri 08:16:20 AM 35.3808 -83.4192 287° West 475 547 29,700 1,286 Climbing FlightAware ADS-B
Fri 08:16:58 AM 35.4046 -83.5155 287° West 468 539 30,600 1,478 Climbing FlightAware ADS-B
Fri 08:17:29 AM 35.4239 -83.5936 287° West 459 528 31,400 1,180 Climbing FlightAware ADS-B
Fri 08:17:59 AM 35.4425 -83.6699 287° West 460 529 31,800 590 Climbing FlightAware ADS-B
Fri 08:18:30 AM 35.4611 -83.7460 287° West 460 529 32,000 197 Climbing FlightAware ADS-B
Fri 08:19:00 AM 35.4794 -83.8215 287° West 461 531 32,000  Level FlightAware ADS-B
Fri 08:19:30 AM 35.4978 -83.8974 287° West 464 534 32,000  Level FlightAware ADS-B
Fri 08:20:01 AM 35.5166 -83.9749 287° West 467 537 32,000  Level FlightAware ADS-B
Fri 08:20:33 AM 35.5361 -84.0558 287° West 470 541 32,000  Level FlightAware ADS-B
Fri 08:21:03 AM 35.5550 -84.1340 287° West 470 541 32,000  Level FlightAware ADS-B
Fri 08:21:34 AM 35.5737 -84.2119 286° West 468 539 32,000  Level FlightAware ADS-B
Fri 08:22:04 AM 35.5923 -84.2894 286° West 471 542 32,000  Level FlightAware ADS-B
Fri 08:22:34 AM 35.6109 -84.3672 286° West 469 540 32,000  Level FlightAware ADS-B
Fri 08:23:05 AM 35.6298 -84.4469 286° West 470 541 32,000  Level FlightAware ADS-B
Fri 08:23:36 AM 35.6484 -84.5254 286° West 471 542 32,000  Level FlightAware ADS-B
Fri 08:24:06 AM 35.6666 -84.6024 286° West 473 544 32,000  Level FlightAware ADS-B
Fri 08:24:38 AM 35.6862 -84.6857 286° West 474 545 32,000  Level FlightAware ADS-B
Fri 08:25:09 AM 35.7046 -84.7642 286° West 474 545 32,000  Level FlightAware ADS-B
Fri 08:25:39 AM 35.7228 -84.8421 286° West 476 548 32,000  Level FlightAware ADS-B
Fri 08:26:09 AM 35.7414 -84.9215 286° West 478 550 32,000  Level FlightAware ADS-B
Fri 08:26:40 AM 35.7603 -85.0027 286° West 478 550 32,000  Level FlightAware ADS-B
Fri 08:27:11 AM 35.7789 -85.0830 286° West 478 550 32,000  Level FlightAware ADS-B
Fri 08:27:51 AM 35.8030 -85.1870 286° West 476 548 32,000  Level FlightAware ADS-B
Fri 08:28:21 AM 35.8212 -85.2662 286° West 477 549 32,000  Level FlightAware ADS-B
Fri 08:28:51 AM 35.8391 -85.3446 286° West 479 551 32,000  Level FlightAware ADS-B
Fri 08:29:21 AM 35.8575 -85.4245 286° West 479 551 32,000  Level FlightAware ADS-B
Fri 08:29:55 AM 35.8779 -85.5139 286° West 478 550 32,000  Level FlightAware ADS-B
Fri 08:30:26 AM 35.8959 -85.5937 286° West 477 549 32,000  Level FlightAware ADS-B
Fri 08:31:00 AM 35.9163 -85.6839 286° West 477 549 32,000  Level FlightAware ADS-B
Fri 08:31:36 AM 35.9376 -85.7781 286° West 478 550 32,000 174 Level FlightAware ADS-B
Fri 08:32:09 AM 35.9571 -85.8646 286° West 480 552 32,200 857 Climbing FlightAware ADS-B
Fri 08:33:07 AM 35.9890 -86.0070 286° West 473 544 33,300 1,080 Climbing FlightAware ADS-B
Fri 08:33:49 AM 36.0150 -86.1251 285° West 472 543 34,000 583 Climbing FlightAware ADS-B
Fri 08:34:19 AM 36.0321 -86.2029 285° West 467 537 34,000  Level FlightAware ADS-B
Fri 08:34:49 AM 36.0493 -86.2805 285° West 466 536 34,000  Level FlightAware ADS-B
Fri 08:35:57 AM 36.0860 -86.4490 285° West 465 535 34,000  Level FlightAware ADS-B
Fri 08:36:37 AM 36.1090 -86.5520 285° West 467 537 34,000 71 Level FlightAware ADS-B
Fri 08:37:22 AM 36.1350 -86.6680 286° West 469 540 34,100 71 Climbing FlightAware ADS-B
Fri 08:38:02 AM 36.1690 -86.7680 293° West 469 540 34,100  Level FlightAware ADS-B
Fri 08:38:47 AM 36.2100 -86.8760 295° West 465 535 34,100 -71 Level FlightAware ADS-B
Fri 08:39:27 AM 36.2460 -86.9720 295° West 462 532 34,000 -75 Descending FlightAware ADS-B
Fri 08:40:07 AM 36.2830 -87.0670 296° West 461 531 34,000  Level FlightAware ADS-B
Fri 08:40:52 AM 36.3240 -87.1770 295° West 459 528 34,000  Level FlightAware ADS-B
Fri 08:41:32 AM 36.3600 -87.2730 295° West 458 527 34,000  Level FlightAware ADS-B
Fri 08:42:12 AM 36.3960 -87.3690 295° West 459 528 34,000  Level FlightAware ADS-B
Fri 08:42:57 AM 36.4350 -87.4730 295° West 459 528 34,000  Level FlightAware ADS-B
Fri 08:43:37 AM 36.4680 -87.5630 295° West 459 528 34,000  Level FlightAware ADS-B
Fri 08:44:22 AM 36.5110 -87.6800 295° West 461 531 34,000  Level FlightAware ADS-B
Fri 08:45:02 AM 36.5440 -87.7690 295° West 462 532 34,000 71 Level FlightAware ADS-B
Fri 08:45:47 AM 36.5840 -87.8780 295° West 462 532 34,100 353 Climbing FlightAware ADS-B
Fri 08:46:27 AM 36.6220 -87.9800 295° West 468 539 34,500 565 Climbing FlightAware ADS-B
Fri 08:47:12 AM 36.6620 -88.0890 295° West 469 540 34,900 635 Climbing FlightAware ADS-B
Fri 08:47:52 AM 36.6980 -88.1880 294° West 469 540 35,400 706 Climbing FlightAware ADS-B
Fri 08:48:37 AM 36.7370 -88.2970 294° West 469 540 35,900 424 Climbing FlightAware ADS-B
Fri 08:49:17 AM 36.7750 -88.3990 295° West 462 532 36,000 63 Climbing FlightAware ADS-B
Fri 08:50:12 AM 36.8210 -88.5290 294° West 463 533 36,000  Level FlightAware ADS-B
Fri 08:50:57 AM 36.8630 -88.6440 295° West 466 536 36,000  Level FlightAware ADS-B
Fri 08:51:37 AM 36.8980 -88.7420 294° West 466 536 36,000  Level FlightAware ADS-B
Fri 08:52:22 AM 36.9370 -88.8520 294° West 466 536 36,000  Level FlightAware ADS-B
Fri 08:53:02 AM 36.9710 -88.9480 294° West 466 536 36,000  Level FlightAware ADS-B
Fri 08:53:47 AM 37.0060 -89.0510 293° West 466 536 36,000  Level FlightAware ADS-B
Fri 08:54:27 AM 37.0350 -89.1360 293° West 466 536 36,000  Level FlightAware ADS-B
Fri 08:55:07 AM 37.0810 -89.2590 295° West 466 536 36,000  Level FlightAware ADS-B
Fri 08:55:52 AM 37.1180 -89.3650 294° West 467 537 36,000  Level FlightAware ADS-B
Fri 08:56:32 AM 37.1490 -89.4560 293° West 467 537 36,000  Level FlightAware ADS-B
Fri 08:57:12 AM 37.1780 -89.5410 293° West 467 537 36,000  Level FlightAware ADS-B
Fri 08:57:52 AM 37.2060 -89.6260 292° West 467 537 36,000  Level FlightAware ADS-B
Fri 08:58:32 AM 37.2350 -89.7110 293° West 467 537 36,000  Level FlightAware ADS-B
Fri 08:59:22 AM 37.2710 -89.8170 293° West 467 537 36,000  Level FlightAware ADS-B
Fri 09:00:02 AM 37.3000 -89.9020 293° West 467 537 36,000  Level FlightAware ADS-B
Fri 09:00:42 AM 37.3280 -89.9870 293° West 467 537 36,000  Level FlightAware ADS-B
Fri 09:01:22 AM 37.3570 -90.0720 293° West 467 537 36,000  Level FlightAware ADS-B
Fri 09:02:02 AM 37.3860 -90.1570 293° West 467 537 36,000  Level FlightAware ADS-B
Fri 09:02:52 AM 37.4220 -90.2630 293° West 467 537 36,000  Level FlightAware ADS-B
Fri 09:03:32 AM 37.4500 -90.3490 292° West 467 537 36,000  Level FlightAware ADS-B
Fri 09:04:12 AM 37.4790 -90.4340 293° West 467 537 36,000  Level FlightAware ADS-B
Fri 09:04:52 AM 37.5080 -90.5190 293° West 467 537 36,000  Level FlightAware ADS-B
Fri 09:05:32 AM 37.5360 -90.6040 293° West 467 537 36,000 -73 Level FlightAware ADS-B
Fri 09:06:14 AM 37.6425 -90.9033 293° West 470 541 35,900  Descending Kansas City Center
Fri 09:07:15 AM 37.7186 -91.0786 299° West 478 550 36,000 49 Climbing Kansas City Center
Fri 09:08:16 AM 37.7822 -91.2269 299° West 477 549 36,000  Level Kansas City Center
Fri 09:09:18 AM 37.8461 -91.3764 298° West 479 551 36,000  Level Kansas City Center
Fri 09:10:19 AM 37.9117 -91.5261 299° West 482 555 36,000  Level Kansas City Center
Fri 09:11:20 AM 37.9794 -91.6750 300° West 485 558 36,000  Level Kansas City Center
Fri 09:12:22 AM 38.0442 -91.8256 299° West 487 560 36,000  Level Kansas City Center
Fri 09:13:23 AM 38.1078 -91.9744 299° West 485 558 36,000  Level Kansas City Center
Fri 09:14:24 AM 38.1722 -92.1261 298° West 486 559 36,000  Level Kansas City Center
Fri 09:15:26 AM 38.2483 -92.3039 299° West 487 560 36,000  Level Kansas City Center
Fri 09:20:47 AM 38.5890 -93.1150 299° West 482 555 36,000  Level FlightAware ADS-B
Fri 09:21:27 AM 38.6290 -93.2130 298° West 482 555 36,000  Level FlightAware ADS-B
Fri 09:22:12 AM 38.6770 -93.3280 298° West 482 555 36,000  Level FlightAware ADS-B
Fri 09:22:52 AM 38.7180 -93.4290 298° West 482 555 36,000  Level FlightAware ADS-B
Fri 09:23:32 AM 38.7600 -93.5320 298° West 482 555 36,000  Level FlightAware ADS-B
Fri 09:24:17 AM 38.8060 -93.6460 297° West 483 556 36,000  Level FlightAware ADS-B
Fri 09:24:57 AM 38.8480 -93.7490 298° West 483 556 36,000  Level FlightAware ADS-B
Fri 09:25:42 AM 38.8930 -93.8590 298° West 481 554 36,000  Level FlightAware ADS-B
Fri 09:26:22 AM 38.9350 -93.9620 298° West 478 550 36,000  Level FlightAware ADS-B
Fri 09:27:07 AM 38.9820 -94.0790 297° West 478 550 36,000  Level FlightAware ADS-B
Fri 09:27:47 AM 39.0210 -94.1780 297° West 477 549 36,000  Level FlightAware ADS-B
Fri 09:28:27 AM 39.0620 -94.2810 297° West 478 550 36,000  Level FlightAware ADS-B
Fri 09:29:12 AM 39.1060 -94.3920 297° West 478 550 36,000  Level FlightAware ADS-B
Fri 09:29:52 AM 39.1470 -94.4940 297° West 480 552 36,000  Level FlightAware ADS-B
Fri 09:30:32 AM 39.1870 -94.5970 297° West 483 556 36,000  Level FlightAware ADS-B
Fri 09:31:17 AM 39.2320 -94.7110 297° West 487 560 36,000  Level FlightAware ADS-B
Fri 09:31:57 AM 39.2740 -94.8170 297° West 489 563 36,000 71 Level FlightAware ADS-B
Fri 09:32:42 AM 39.3200 -94.9350 297° West 491 565 36,100  Climbing FlightAware ADS-B
Fri 09:33:22 AM 39.3610 -95.0410 297° West 492 566 36,000  Descending FlightAware ADS-B
Fri 09:34:07 AM 39.4060 -95.1560 297° West 491 565 36,100 71 Climbing FlightAware ADS-B
Fri 09:34:47 AM 39.4470 -95.2620 297° West 491 565 36,100 -75 Level FlightAware ADS-B
Fri 09:35:27 AM 39.4860 -95.3640 296° West 488 562 36,000 -71 Descending FlightAware ADS-B
Fri 09:36:12 AM 39.5320 -95.4840 296° West 488 562 36,000  Level FlightAware ADS-B
Fri 09:36:52 AM 39.5720 -95.5900 296° West 485 558 36,000  Level FlightAware ADS-B
Fri 09:37:37 AM 39.5700 -95.5830 110° East 486 559 36,000  Level FlightAware ADS-B
Fri 09:38:17 AM 39.5990 -95.6610 296° West 483 556 36,000  Level FlightAware ADS-B
Fri 09:38:52 AM 39.6410 -95.7710 296° West 480 552 36,000  Level FlightAware ADS-B
Fri 09:39:42 AM 39.6930 -95.9070 296° West 474 545 36,000  Level FlightAware ADS-B
Fri 09:40:22 AM 39.7260 -95.9960 296° West 471 542 36,000  Level FlightAware ADS-B
Fri 09:41:02 AM 39.7620 -96.0900 297° West 469 540 36,000  Level FlightAware ADS-B
Fri 09:41:42 AM 39.8110 -96.2210 296° West 463 533 36,000  Level FlightAware ADS-B
Fri 09:42:27 AM 39.8310 -96.2760 295° West 462 532 36,000  Level FlightAware ADS-B
Fri 09:43:12 AM 39.8460 -96.3150 297° West 461 531 36,000  Level FlightAware ADS-B
Fri 09:43:52 AM 39.8770 -96.3990 296° West 459 528 36,000  Level FlightAware ADS-B
Fri 09:44:47 AM 39.9380 -96.5620 296° West 459 528 36,000  Level FlightAware ADS-B
Fri 09:45:22 AM 39.9870 -96.6980 295° West 459 528 36,000  Level FlightAware ADS-B
Fri 09:46:27 AM 40.0450 -96.8540 296° West 461 531 36,000  Level FlightAware ADS-B
Fri 09:47:07 AM 40.0770 -96.9390 296° West 461 531 36,000  Level FlightAware ADS-B
Fri 09:47:47 AM 40.1090 -97.0240 296° West 461 531 36,000  Level FlightAware ADS-B
Fri 09:48:27 AM 40.1400 -97.1100 295° West 461 531 36,000  Level FlightAware ADS-B
Fri 09:49:07 AM 40.1720 -97.1950 296° West 461 531 36,000  Level FlightAware ADS-B
Fri 09:49:57 AM 40.2120 -97.3010 296° West 461 531 36,000  Level FlightAware ADS-B
Fri 09:50:37 AM 40.2440 -97.3870 296° West 461 531 36,000  Level FlightAware ADS-B
Fri 09:51:17 AM 40.2760 -97.4720 296° West 461 531 36,000  Level FlightAware ADS-B
Fri 09:51:57 AM 40.3070 -97.5580 295° West 461 531 36,000  Level FlightAware ADS-B
Fri 09:52:37 AM 40.3390 -97.6430 296° West 461 531 36,000  Level FlightAware ADS-B
Fri 09:53:27 AM 40.3790 -97.7500 296° West 461 531 36,000  Level FlightAware ADS-B
Fri 09:54:07 AM 40.4110 -97.8360 296° West 461 531 36,000  Level FlightAware ADS-B
Fri 09:54:47 AM 40.4420 -97.9210 296° West 461 531 36,000  Level FlightAware ADS-B
Fri 09:55:27 AM 40.4740 -98.0070 296° West 461 531 36,000  Level FlightAware ADS-B
Fri 09:55:45 AM 40.6044 -98.4567 296° West 459 528 36,000  Level Denver Center
Fri 09:56:20 AM 40.6156 -98.5550 278° West 455 524 36,000  Level Minneapolis Center
Fri 09:57:22 AM 40.6306 -98.7219 277° West 456 525 36,000  Level Minneapolis Center
Fri 09:58:23 AM 40.6453 -98.8892 277° West 455 524 36,000  Level Minneapolis Center
Fri 09:59:25 AM 40.6606 -99.0542 277° West 452 520 36,000  Level Minneapolis Center
Fri 10:00:26 AM 40.6739 -99.2186 276° West 449 517 36,000  Level Minneapolis Center
Fri 10:00:51 AM 40.6792 -99.2847 276° West 449 517 36,000  Level Denver Center
Fri 10:01:53 AM 40.6933 -99.4492 277° West 449 517 36,000  Level Denver Center
Fri 10:02:54 AM 40.7097 -99.6456 276° West 448 516 36,000  Level Denver Center
Fri 10:03:55 AM 40.7222 -99.8075 276° West 445 512 36,000  Level Denver Center
Fri 10:04:57 AM 40.7339 -99.9653 276° West 448 516 36,000  Level Denver Center
Fri 10:05:58 AM 40.7467 -100.1217 276° West 447 514 36,000  Level Denver Center
Fri 10:12:01 AM 40.6538 -101.1320 276° West 457 526 36,000  Level FlightAware ADS-B
Fri 10:12:32 AM 40.6408 -101.2170 259° West 458 527 36,000  Level FlightAware ADS-B
Fri 10:13:03 AM 40.6278 -101.3020 259° West 460 529 36,000  Level FlightAware ADS-B
Fri 10:13:33 AM 40.6147 -101.3850 258° West 459 528 36,000  Level FlightAware ADS-B
Fri 10:14:04 AM 40.6018 -101.4680 258° West 454 522 36,000  Level FlightAware ADS-B
Fri 10:14:34 AM 40.5890 -101.5490 258° West 445 512 36,000  Level FlightAware ADS-B
Fri 10:15:04 AM 40.5764 -101.6290 258° West 444 511 36,000  Level FlightAware ADS-B
Fri 10:15:35 AM 40.5635 -101.7100 258° West 447 514 36,000  Level FlightAware ADS-B
Fri 10:16:05 AM 40.5507 -101.7900 258° West 449 517 36,000  Level FlightAware ADS-B
Fri 10:16:36 AM 40.5372 -101.8740 258° West 447 514 36,000  Level FlightAware ADS-B
Fri 10:17:07 AM 40.5239 -101.9560 258° West 446 513 36,000  Level FlightAware ADS-B
Fri 10:17:38 AM 40.5108 -102.0380 258° West 446 513 36,000  Level FlightAware ADS-B
Fri 10:18:12 AM 40.4962 -102.1270 258° West 447 514 36,000  Level FlightAware ADS-B
Fri 10:18:43 AM 40.4830 -102.2080 258° West 448 516 36,000  Level FlightAware ADS-B
Fri 10:19:13 AM 40.4697 -102.2890 258° West 449 517 36,000  Level FlightAware ADS-B
Fri 10:19:43 AM 40.4562 -102.3700 258° West 451 519 36,000 -100 Level FlightAware ADS-B
Fri 10:20:13 AM 40.4429 -102.4510 258° West 453 521 35,900 -1,082 Descending FlightAware ADS-B
Fri 10:20:44 AM 40.4294 -102.5320 258° West 452 520 34,900 -1,714 Descending FlightAware ADS-B
Fri 10:21:16 AM 40.4153 -102.6160 258° West 438 504 34,100 -1,742 Descending FlightAware ADS-B
Fri 10:21:46 AM 40.4020 -102.6960 258° West 439 505 33,100 -2,600 Descending FlightAware ADS-B
Fri 10:22:16 AM 40.3888 -102.7740 257° West 445 512 31,500 -2,951 Descending FlightAware ADS-B
Fri 10:22:47 AM 40.3750 -102.8540 257° West 446 513 30,100 -2,557 Descending FlightAware ADS-B
Fri 10:23:17 AM 40.3614 -102.9340 257° West 437 503 28,900 -2,323 Descending FlightAware ADS-B
Fri 10:23:49 AM 40.3477 -103.0140 257° West 431 496 27,700 -2,226 Descending FlightAware ADS-B
Fri 10:24:19 AM 40.3347 -103.0900 257° West 424 488 26,600 -2,200 Descending FlightAware ADS-B
Fri 10:24:49 AM 40.3217 -103.1650 257° West 417 480 25,500 -2,200 Descending FlightAware ADS-B
Fri 10:25:19 AM 40.3088 -103.2390 257° West 411 473 24,400 -2,200 Descending FlightAware ADS-B
Fri 10:25:49 AM 40.2962 -103.3110 257° West 402 463 23,300 -2,129 Descending FlightAware ADS-B
Fri 10:26:21 AM 40.2833 -103.3850 257° West 395 455 22,200 -2,032 Descending FlightAware ADS-B
Fri 10:26:51 AM 40.2712 -103.4540 257° West 387 445 21,200 -2,100 Descending FlightAware ADS-B
Fri 10:27:21 AM 40.2591 -103.5230 257° West 380 437 20,100 -2,066 Descending FlightAware ADS-B
Fri 10:27:52 AM 40.2471 -103.5910 257° West 371 427 19,100 -1,672 Descending FlightAware ADS-B
Fri 10:28:22 AM 40.2355 -103.6560 257° West 359 413 18,400 -984 Descending FlightAware ADS-B
Fri 10:28:53 AM 40.2244 -103.7180 257° West 335 386 18,100 -787 Descending FlightAware ADS-B
Fri 10:29:23 AM 40.2141 -103.7760 257° West 318 366 17,600 -800 Descending FlightAware ADS-B
Fri 10:29:53 AM 40.2042 -103.8310 257° West 299 344 17,300 -632 Descending FlightAware ADS-B
Fri 10:30:01 AM 40.2024 -103.8440 260° West 289 333 17,200 -923 Descending FlightAware ADS-B
Fri 10:30:06 AM 40.2019 -103.8530 266° West 282 325 17,100 -1,125 Descending FlightAware ADS-B
Fri 10:30:17 AM 40.2029 -103.8710 274° West 280 322 16,900 -1,463 Descending FlightAware ADS-B
Fri 10:30:47 AM 40.2079 -103.9240 277° West 296 341 16,100 -1,500 Descending FlightAware ADS-B
Fri 10:31:17 AM 40.2129 -103.9790 277° West 303 349 15,400 -1,452 Descending FlightAware ADS-B
Fri 10:31:49 AM 40.2179 -104.0350 277° West 297 342 14,600 -1,548 Descending FlightAware ADS-B
Fri 10:32:19 AM 40.2229 -104.0890 277° West 291 335 13,800 -1,475 Descending FlightAware ADS-B
Fri 10:32:50 AM 40.2279 -104.1420 277° West 287 330 13,100 -1,355 Descending FlightAware ADS-B
Fri 10:33:21 AM 40.2328 -104.1950 277° West 285 328 12,400 -1,377 Descending FlightAware ADS-B
Fri 10:33:51 AM 40.2375 -104.2480 277° West 283 326 11,700 -800 Descending FlightAware ADS-B
Fri 10:34:21 AM 40.2421 -104.2980 277° West 289 333 11,600 -682 Descending FlightAware ADS-B
Fri 10:34:35 AM 40.2445 -104.3220 277° West 292 336 11,200 -1,579 Descending FlightAware ADS-B
Fri 10:34:40 AM 40.2450 -104.3310 274° West 293 337 11,100 -1,200 Descending FlightAware ADS-B
Fri 10:34:45 AM 40.2446 -104.3400 267° West 296 341 11,000 -1,333 Descending FlightAware ADS-B
Fri 10:34:49 AM 40.2433 -104.3480 258° West 297 342 10,900 -750 Descending FlightAware ADS-B
Fri 10:34:53 AM 40.2420 -104.3540 254° West 298 343 10,900 -750 Level FlightAware ADS-B
Fri 10:34:57 AM 40.2395 -104.3620 248° West 299 344 10,800 -1,000 Descending FlightAware ADS-B
Fri 10:35:05 AM 40.2340 -104.3730 237° Southwest 300 345 10,700 -1,371 Descending FlightAware ADS-B
Fri 10:35:32 AM 40.2115 -104.4130 234° Southwest 297 342 10,000 -1,395 Descending FlightAware ADS-B
Fri 10:35:48 AM 40.1984 -104.4350 232° Southwest 295 339 9,700 -581 Descending FlightAware ADS-B
Fri 10:36:03 AM 40.1856 -104.4580 234° Southwest 298 343 9,700 -387 Level FlightAware ADS-B
Fri 10:36:19 AM 40.1729 -104.4800 233° Southwest 295 339 9,500 -938 Descending FlightAware ADS-B
Fri 10:36:35 AM 40.1602 -104.5020 233° Southwest 294 338 9,200 -1,355 Descending FlightAware ADS-B
Fri 10:36:50 AM 40.1478 -104.5240 234° Southwest 291 335 8,800 -1,600 Descending FlightAware ADS-B
Fri 10:37:05 AM 40.1353 -104.5450 232° Southwest 286 329 8,400 -1,742 Descending FlightAware ADS-B
Fri 10:37:21 AM 40.1229 -104.5670 234° Southwest 281 323 7,900 -1,355 Descending FlightAware ADS-B
Fri 10:37:36 AM 40.1112 -104.5880 234° Southwest 275 316 7,700 -387 Descending FlightAware ADS-B
Fri 10:37:52 AM 40.0999 -104.6080 234° Southwest 272 313 7,700  Level FlightAware ADS-B
Fri 10:37:59 AM 40.0947 -104.6180 236° Southwest 272 313 7,700 -545 Level FlightAware ADS-B
Fri 10:38:03 AM 40.0908 -104.6240 230° Southwest 274 315 7,600  Descending FlightAware ADS-B
Fri 10:38:07 AM 40.0878 -104.6280 226° Southwest 275 316 7,700  Climbing FlightAware ADS-B
Fri 10:38:10 AM 40.0843 -104.6310 213° Southwest 277 319 7,600  Descending FlightAware ADS-B
Fri 10:38:13 AM 40.0809 -104.6340 214° Southwest 279 321 7,700 857 Climbing FlightAware ADS-B
Fri 10:38:17 AM 40.0764 -104.6370 207° Southwest 278 320 7,700  Level FlightAware ADS-B
Fri 10:38:33 AM 40.0592 -104.6480 206° Southwest 265 305 7,700  Level FlightAware ADS-B
Fri 10:38:48 AM 40.0425 -104.6590 207° Southwest 255 293 7,700 -194 Level FlightAware ADS-B
Fri 10:39:04 AM 40.0259 -104.6690 205° Southwest 249 287 7,600 -774 Descending FlightAware ADS-B
Fri 10:39:19 AM 40.0099 -104.6790 206° Southwest 246 283 7,300 -1,143 Descending FlightAware ADS-B
Fri 10:39:25 AM 40.0037 -104.6820 200° South 246 283 7,200 -1,200 Descending FlightAware ADS-B
Fri 10:39:29 AM 39.9993 -104.6840 199° South 246 283 7,100 -750 Descending FlightAware ADS-B
Fri 10:39:33 AM 39.9954 -104.6850 191° South 246 283 7,100 -600 Level FlightAware ADS-B
Fri 10:39:39 AM 39.9884 -104.6860 186° South 239 275 7,000 -1,364 Descending FlightAware ADS-B
Fri 10:39:55 AM 39.9716 -104.6860 180° South 225 259 6,600 -1,440 Descending FlightAware ADS-B
Fri 10:40:04 AM 39.9621 -104.6860 180° South 218 251 6,400 -1,250 Descending FlightAware ADS-B
Fri 10:40:19 AM 39.9473 -104.6860 180° South 202 232 6,100 -1,125 Descending FlightAware ADS-B
Fri 10:40:36 AM 39.9325 -104.6860 180° South 185 213 5,800 -1,125 Descending FlightAware ADS-B
Fri 10:40:51 AM 39.9200 -104.6870 184° South 174 200 5,500 -1,000 Descending FlightAware ADS-B
Fri 10:41:06 AM 39.9083 -104.6870 180° South 163 188 5,300 -774 Descending FlightAware ADS-B
Fri 10:41:22 AM 39.8963 -104.6870 180° South 157 181 5,100 -750 Descending FlightAware ADS-B

Login

Don't have an account? Register now (free) for customized features, flight alerts, and more!